sensor_id;sensor_type;location;lat;lon;timestamp;temperature;humidity
1347;DHT22;667;48.796;9.480;2023-11-18T00:01:44;9.30;84.30
1347;DHT22;667;48.796;9.480;2023-11-18T00:04:10;9.30;84.20
1347;DHT22;667;48.796;9.480;2023-11-18T00:06:41;9.30;84.10
1347;DHT22;667;48.796;9.480;2023-11-18T00:09:10;9.30;84.30
1347;DHT22;667;48.796;9.480;2023-11-18T00:11:39;9.30;84.50
1347;DHT22;667;48.796;9.480;2023-11-18T00:14:05;9.30;84.50
1347;DHT22;667;48.796;9.480;2023-11-18T00:16:30;9.30;84.30
1347;DHT22;667;48.796;9.480;2023-11-18T00:18:57;9.30;84.40
1347;DHT22;667;48.796;9.480;2023-11-18T00:21:24;9.30;84.30
1347;DHT22;667;48.796;9.480;2023-11-18T00:23:50;9.30;84.40
1347;DHT22;667;48.796;9.480;2023-11-18T00:26:16;9.30;84.60
1347;DHT22;667;48.796;9.480;2023-11-18T00:28:42;9.30;84.60
1347;DHT22;667;48.796;9.480;2023-11-18T00:31:07;9.30;84.70
1347;DHT22;667;48.796;9.480;2023-11-18T00:33:33;9.30;84.80
1347;DHT22;667;48.796;9.480;2023-11-18T00:35:58;9.30;84.80
1347;DHT22;667;48.796;9.480;2023-11-18T00:38:26;9.20;84.70
1347;DHT22;667;48.796;9.480;2023-11-18T00:40:59;9.30;84.90
1347;DHT22;667;48.796;9.480;2023-11-18T00:43:25;9.30;85.20
1347;DHT22;667;48.796;9.480;2023-11-18T00:45:51;9.30;85.20
1347;DHT22;667;48.796;9.480;2023-11-18T00:48:17;9.30;85.10
1347;DHT22;667;48.796;9.480;2023-11-18T00:50:42;9.30;85.00
1347;DHT22;667;48.796;9.480;2023-11-18T00:53:08;9.30;84.90
1347;DHT22;667;48.796;9.480;2023-11-18T00:55:35;9.30;84.90
1347;DHT22;667;48.796;9.480;2023-11-18T00:58:01;9.30;85.60
1347;DHT22;667;48.796;9.480;2023-11-18T01:00:27;9.30;84.70
1347;DHT22;667;48.796;9.480;2023-11-18T01:02:53;9.30;84.70
1347;DHT22;667;48.796;9.480;2023-11-18T01:05:20;9.30;84.70
1347;DHT22;667;48.796;9.480;2023-11-18T01:07:46;9.30;84.80
1347;DHT22;667;48.796;9.480;2023-11-18T01:10:12;9.30;84.70
1347;DHT22;667;48.796;9.480;2023-11-18T01:12:39;9.30;84.60
1347;DHT22;667;48.796;9.480;2023-11-18T01:15:05;9.40;84.80
1347;DHT22;667;48.796;9.480;2023-11-18T01:17:32;9.30;84.60
1347;DHT22;667;48.796;9.480;2023-11-18T01:19:58;9.40;84.70
1347;DHT22;667;48.796;9.480;2023-11-18T01:22:24;9.30;84.70
1347;DHT22;667;48.796;9.480;2023-11-18T01:24:50;9.40;84.70
1347;DHT22;667;48.796;9.480;2023-11-18T01:27:17;9.40;84.80
1347;DHT22;667;48.796;9.480;2023-11-18T01:29:44;9.40;85.60
1347;DHT22;667;48.796;9.480;2023-11-18T01:32:12;9.40;84.90
1347;DHT22;667;48.796;9.480;2023-11-18T01:34:39;9.40;84.90
1347;DHT22;667;48.796;9.480;2023-11-18T01:37:08;9.40;84.60
1347;DHT22;667;48.796;9.480;2023-11-18T01:39:35;9.40;84.50
1347;DHT22;667;48.796;9.480;2023-11-18T01:42:01;9.40;84.40
1347;DHT22;667;48.796;9.480;2023-11-18T01:44:28;9.40;84.30
1347;DHT22;667;48.796;9.480;2023-11-18T01:46:58;9.40;84.20
1347;DHT22;667;48.796;9.480;2023-11-18T01:49:24;9.40;84.10
1347;DHT22;667;48.796;9.480;2023-11-18T01:51:52;9.40;83.90
1347;DHT22;667;48.796;9.480;2023-11-18T01:54:18;9.40;83.80
1347;DHT22;667;48.796;9.480;2023-11-18T01:56:47;9.40;83.90
1347;DHT22;667;48.796;9.480;2023-11-18T01:59:13;9.40;84.00
1347;DHT22;667;48.796;9.480;2023-11-18T02:01:51;9.40;84.00
1347;DHT22;667;48.796;9.480;2023-11-18T02:04:18;9.40;83.90
1347;DHT22;667;48.796;9.480;2023-11-18T02:06:45;9.40;83.90
1347;DHT22;667;48.796;9.480;2023-11-18T02:09:17;9.30;84.40
1347;DHT22;667;48.796;9.480;2023-11-18T02:11:53;9.30;83.90
1347;DHT22;667;48.796;9.480;2023-11-18T02:14:20;9.40;84.20
1347;DHT22;667;48.796;9.480;2023-11-18T02:16:49;9.30;84.30
1347;DHT22;667;48.796;9.480;2023-11-18T02:19:21;9.40;84.40
1347;DHT22;667;48.796;9.480;2023-11-18T02:21:50;9.30;84.30
1347;DHT22;667;48.796;9.480;2023-11-18T02:24:33;9.30;84.30
1347;DHT22;667;48.796;9.480;2023-11-18T02:27:05;9.40;84.50
1347;DHT22;667;48.796;9.480;2023-11-18T02:29:39;9.30;84.20
1347;DHT22;667;48.796;9.480;2023-11-18T02:35:13;9.30;84.20
1347;DHT22;667;48.796;9.480;2023-11-18T02:37:44;9.30;84.50
1347;DHT22;667;48.796;9.480;2023-11-18T02:40:19;9.30;84.70
1347;DHT22;667;48.796;9.480;2023-11-18T02:42:45;9.40;85.00
1347;DHT22;667;48.796;9.480;2023-11-18T02:45:13;9.40;84.90
1347;DHT22;667;48.796;9.480;2023-11-18T02:47:44;9.40;84.90
1347;DHT22;667;48.796;9.480;2023-11-18T02:50:09;9.40;84.80
1347;DHT22;667;48.796;9.480;2023-11-18T02:52:39;9.40;84.50
1347;DHT22;667;48.796;9.480;2023-11-18T02:55:09;9.40;84.40
1347;DHT22;667;48.796;9.480;2023-11-18T02:57:35;9.40;84.30
1347;DHT22;667;48.796;9.480;2023-11-18T03:00:01;9.40;84.20
1347;DHT22;667;48.796;9.480;2023-11-18T03:02:29;9.40;84.30
1347;DHT22;667;48.796;9.480;2023-11-18T03:04:57;9.30;84.40
1347;DHT22;667;48.796;9.480;2023-11-18T03:07:23;9.40;84.70
1347;DHT22;667;48.796;9.480;2023-11-18T03:09:48;9.30;84.70
1347;DHT22;667;48.796;9.480;2023-11-18T03:12:14;9.30;84.80
1347;DHT22;667;48.796;9.480;2023-11-18T03:14:39;9.30;84.90
1347;DHT22;667;48.796;9.480;2023-11-18T03:17:05;9.40;84.90
1347;DHT22;667;48.796;9.480;2023-11-18T03:19:33;9.40;84.80
1347;DHT22;667;48.796;9.480;2023-11-18T03:22:05;9.40;84.80
1347;DHT22;667;48.796;9.480;2023-11-18T03:24:31;9.40;85.10
1347;DHT22;667;48.796;9.480;2023-11-18T03:26:57;9.40;84.80
1347;DHT22;667;48.796;9.480;2023-11-18T03:29:22;9.40;84.80
1347;DHT22;667;48.796;9.480;2023-11-18T03:31:49;9.40;84.80
1347;DHT22;667;48.796;9.480;2023-11-18T03:34:18;9.40;84.80
1347;DHT22;667;48.796;9.480;2023-11-18T03:36:47;9.40;84.80
1347;DHT22;667;48.796;9.480;2023-11-18T03:39:13;9.40;84.90
1347;DHT22;667;48.796;9.480;2023-11-18T03:41:42;9.40;85.00
1347;DHT22;667;48.796;9.480;2023-11-18T03:44:13;9.40;85.00
1347;DHT22;667;48.796;9.480;2023-11-18T03:46:39;9.40;85.00
1347;DHT22;667;48.796;9.480;2023-11-18T03:49:06;9.40;85.10
1347;DHT22;667;48.796;9.480;2023-11-18T03:51:32;9.40;85.10
1347;DHT22;667;48.796;9.480;2023-11-18T03:53:57;9.40;85.10
1347;DHT22;667;48.796;9.480;2023-11-18T03:56:23;9.40;85.20
1347;DHT22;667;48.796;9.480;2023-11-18T03:58:48;9.30;85.10
1347;DHT22;667;48.796;9.480;2023-11-18T04:01:26;9.30;85.10
1347;DHT22;667;48.796;9.480;2023-11-18T04:03:54;9.40;85.10
1347;DHT22;667;48.796;9.480;2023-11-18T04:06:21;9.30;84.80
1347;DHT22;667;48.796;9.480;2023-11-18T04:08:47;9.30;84.70
1347;DHT22;667;48.796;9.480;2023-11-18T04:11:14;9.30;84.60
1347;DHT22;667;48.796;9.480;2023-11-18T04:13:43;9.30;85.20
1347;DHT22;667;48.796;9.480;2023-11-18T04:16:15;9.30;84.30
1347;DHT22;667;48.796;9.480;2023-11-18T04:18:42;9.20;84.20
1347;DHT22;667;48.796;9.480;2023-11-18T04:21:12;9.20;84.20
1347;DHT22;667;48.796;9.480;2023-11-18T04:23:39;9.20;84.20
1347;DHT22;667;48.796;9.480;2023-11-18T04:26:05;9.10;83.80
1347;DHT22;667;48.796;9.480;2023-11-18T04:28:35;9.10;83.90
1347;DHT22;667;48.796;9.480;2023-11-18T04:31:01;9.10;83.80
1347;DHT22;667;48.796;9.480;2023-11-18T04:33:28;9.00;83.60
1347;DHT22;667;48.796;9.480;2023-11-18T04:35:55;9.00;84.00
1347;DHT22;667;48.796;9.480;2023-11-18T04:38:22;9.00;85.10
1347;DHT22;667;48.796;9.480;2023-11-18T04:40:48;9.00;84.60
1347;DHT22;667;48.796;9.480;2023-11-18T04:43:14;9.00;84.80
1347;DHT22;667;48.796;9.480;2023-11-18T04:45:42;9.00;84.80
1347;DHT22;667;48.796;9.480;2023-11-18T04:48:07;9.00;84.70
1347;DHT22;667;48.796;9.480;2023-11-18T04:50:33;9.00;84.70
1347;DHT22;667;48.796;9.480;2023-11-18T04:52:59;9.00;84.60
1347;DHT22;667;48.796;9.480;2023-11-18T04:55:24;9.00;84.40
1347;DHT22;667;48.796;9.480;2023-11-18T04:57:54;8.90;83.90
1347;DHT22;667;48.796;9.480;2023-11-18T05:00:20;8.90;83.80
1347;DHT22;667;48.796;9.480;2023-11-18T05:02:47;8.90;84.00
1347;DHT22;667;48.796;9.480;2023-11-18T05:05:16;8.90;84.30
1347;DHT22;667;48.796;9.480;2023-11-18T05:07:42;8.90;84.30
1347;DHT22;667;48.796;9.480;2023-11-18T05:10:08;8.80;84.30
1347;DHT22;667;48.796;9.480;2023-11-18T05:12:36;8.80;84.30
1347;DHT22;667;48.796;9.480;2023-11-18T05:15:02;8.80;84.30
1347;DHT22;667;48.796;9.480;2023-11-18T05:17:29;8.80;84.30
1347;DHT22;667;48.796;9.480;2023-11-18T05:19:55;8.80;84.10
1347;DHT22;667;48.796;9.480;2023-11-18T05:22:21;8.70;83.70
1347;DHT22;667;48.796;9.480;2023-11-18T05:24:47;8.70;83.40
1347;DHT22;667;48.796;9.480;2023-11-18T05:27:14;8.60;83.50
1347;DHT22;667;48.796;9.480;2023-11-18T05:29:40;8.60;83.70
1347;DHT22;667;48.796;9.480;2023-11-18T05:32:10;8.60;83.90
1347;DHT22;667;48.796;9.480;2023-11-18T05:34:36;8.60;84.00
1347;DHT22;667;48.796;9.480;2023-11-18T05:37:01;8.60;83.90
1347;DHT22;667;48.796;9.480;2023-11-18T05:39:27;8.60;83.80
1347;DHT22;667;48.796;9.480;2023-11-18T05:41:59;8.50;83.60
1347;DHT22;667;48.796;9.480;2023-11-18T05:44:25;8.50;83.50
1347;DHT22;667;48.796;9.480;2023-11-18T05:46:59;8.50;83.40
1347;DHT22;667;48.796;9.480;2023-11-18T05:49:25;8.50;83.40
1347;DHT22;667;48.796;9.480;2023-11-18T05:51:51;8.50;83.10
1347;DHT22;667;48.796;9.480;2023-11-18T05:54:17;8.50;83.00
1347;DHT22;667;48.796;9.480;2023-11-18T05:56:42;8.40;82.70
1347;DHT22;667;48.796;9.480;2023-11-18T05:59:08;8.40;82.60
1347;DHT22;667;48.796;9.480;2023-11-18T06:01:34;8.40;82.70
1347;DHT22;667;48.796;9.480;2023-11-18T06:04:00;8.30;82.50
1347;DHT22;667;48.796;9.480;2023-11-18T06:06:26;8.30;82.30
1347;DHT22;667;48.796;9.480;2023-11-18T06:08:52;8.30;82.10
1347;DHT22;667;48.796;9.480;2023-11-18T06:11:19;8.30;81.90
1347;DHT22;667;48.796;9.480;2023-11-18T06:13:49;8.20;81.70
1347;DHT22;667;48.796;9.480;2023-11-18T06:16:25;8.20;81.70
1347;DHT22;667;48.796;9.480;2023-11-18T06:18:53;8.20;81.60
1347;DHT22;667;48.796;9.480;2023-11-18T06:21:25;8.10;82.10
1347;DHT22;667;48.796;9.480;2023-11-18T06:23:55;8.10;81.40
1347;DHT22;667;48.796;9.480;2023-11-18T06:26:21;8.10;81.40
1347;DHT22;667;48.796;9.480;2023-11-18T06:28:48;8.10;81.40
1347;DHT22;667;48.796;9.480;2023-11-18T06:31:16;8.00;81.10
1347;DHT22;667;48.796;9.480;2023-11-18T06:33:43;8.00;80.60
1347;DHT22;667;48.796;9.480;2023-11-18T06:36:16;7.90;80.60
1347;DHT22;667;48.796;9.480;2023-11-18T06:38:46;7.90;80.70
1347;DHT22;667;48.796;9.480;2023-11-18T06:41:13;7.90;80.80
1347;DHT22;667;48.796;9.480;2023-11-18T06:43:41;7.90;80.60
1347;DHT22;667;48.796;9.480;2023-11-18T06:46:20;7.90;80.50
1347;DHT22;667;48.796;9.480;2023-11-18T06:48:49;7.80;80.20
1347;DHT22;667;48.796;9.480;2023-11-18T06:51:17;7.80;80.20
1347;DHT22;667;48.796;9.480;2023-11-18T06:53:43;7.80;80.10
1347;DHT22;667;48.796;9.480;2023-11-18T06:56:10;7.80;80.10
1347;DHT22;667;48.796;9.480;2023-11-18T06:58:40;7.80;80.10
1347;DHT22;667;48.796;9.480;2023-11-18T07:01:09;7.80;80.00
1347;DHT22;667;48.796;9.480;2023-11-18T07:03:35;7.80;79.80
1347;DHT22;667;48.796;9.480;2023-11-18T07:06:02;7.80;79.90
1347;DHT22;667;48.796;9.480;2023-11-18T07:08:28;7.70;79.90
1347;DHT22;667;48.796;9.480;2023-11-18T07:10:53;7.70;79.70
1347;DHT22;667;48.796;9.480;2023-11-18T07:13:19;7.70;79.90
1347;DHT22;667;48.796;9.480;2023-11-18T07:15:45;7.70;79.90
1347;DHT22;667;48.796;9.480;2023-11-18T07:18:11;7.70;79.90
1347;DHT22;667;48.796;9.480;2023-11-18T07:20:37;7.70;79.80
1347;DHT22;667;48.796;9.480;2023-11-18T07:23:02;7.70;79.80
1347;DHT22;667;48.796;9.480;2023-11-18T07:25:28;7.70;79.80
1347;DHT22;667;48.796;9.480;2023-11-18T07:27:53;7.70;80.00
1347;DHT22;667;48.796;9.480;2023-11-18T07:30:21;7.70;80.00
1347;DHT22;667;48.796;9.480;2023-11-18T07:32:48;7.70;80.00
1347;DHT22;667;48.796;9.480;2023-11-18T07:35:14;7.70;80.10
1347;DHT22;667;48.796;9.480;2023-11-18T07:37:40;7.70;80.20
1347;DHT22;667;48.796;9.480;2023-11-18T07:40:07;7.80;80.40
1347;DHT22;667;48.796;9.480;2023-11-18T07:42:33;7.80;80.50
1347;DHT22;667;48.796;9.480;2023-11-18T07:45:03;7.80;80.70
1347;DHT22;667;48.796;9.480;2023-11-18T07:47:30;7.80;80.80
1347;DHT22;667;48.796;9.480;2023-11-18T07:49:59;7.90;81.10
1347;DHT22;667;48.796;9.480;2023-11-18T07:52:26;8.00;81.40
1347;DHT22;667;48.796;9.480;2023-11-18T07:54:53;8.00;81.50
1347;DHT22;667;48.796;9.480;2023-11-18T07:57:19;8.10;81.60
1347;DHT22;667;48.796;9.480;2023-11-18T07:59:45;8.30;81.70
1347;DHT22;667;48.796;9.480;2023-11-18T08:02:10;8.40;81.70
1347;DHT22;667;48.796;9.480;2023-11-18T08:04:36;8.50;81.70
1347;DHT22;667;48.796;9.480;2023-11-18T08:07:02;8.60;81.70
1347;DHT22;667;48.796;9.480;2023-11-18T08:09:30;8.70;81.70
1347;DHT22;667;48.796;9.480;2023-11-18T08:11:57;8.80;81.60
1347;DHT22;667;48.796;9.480;2023-11-18T08:14:22;8.90;81.60
1347;DHT22;667;48.796;9.480;2023-11-18T08:16:50;8.90;81.30
1347;DHT22;667;48.796;9.480;2023-11-18T08:19:16;9.00;81.30
1347;DHT22;667;48.796;9.480;2023-11-18T08:21:43;9.00;81.20
1347;DHT22;667;48.796;9.480;2023-11-18T08:24:08;9.10;81.30
1347;DHT22;667;48.796;9.480;2023-11-18T08:26:35;9.10;81.30
1347;DHT22;667;48.796;9.480;2023-11-18T08:29:01;9.10;81.30
1347;DHT22;667;48.796;9.480;2023-11-18T08:31:27;9.10;81.40
1347;DHT22;667;48.796;9.480;2023-11-18T08:33:52;9.10;81.40
1347;DHT22;667;48.796;9.480;2023-11-18T08:36:20;9.20;81.60
1347;DHT22;667;48.796;9.480;2023-11-18T08:38:48;9.20;81.70
1347;DHT22;667;48.796;9.480;2023-11-18T08:41:13;9.20;81.90
1347;DHT22;667;48.796;9.480;2023-11-18T08:43:39;9.20;82.00
1347;DHT22;667;48.796;9.480;2023-11-18T08:46:06;9.30;82.20
1347;DHT22;667;48.796;9.480;2023-11-18T08:48:32;9.30;82.10
1347;DHT22;667;48.796;9.480;2023-11-18T08:50:59;9.40;82.00
1347;DHT22;667;48.796;9.480;2023-11-18T08:53:27;9.40;82.20
1347;DHT22;667;48.796;9.480;2023-11-18T08:55:53;9.40;82.20
1347;DHT22;667;48.796;9.480;2023-11-18T08:58:22;9.50;82.30
1347;DHT22;667;48.796;9.480;2023-11-18T09:00:52;9.50;82.30
1347;DHT22;667;48.796;9.480;2023-11-18T09:03:25;9.50;82.50
1347;DHT22;667;48.796;9.480;2023-11-18T09:05:58;9.60;82.60
1347;DHT22;667;48.796;9.480;2023-11-18T09:08:28;9.60;82.60
1347;DHT22;667;48.796;9.480;2023-11-18T09:10:57;9.70;82.80
1347;DHT22;667;48.796;9.480;2023-11-18T09:13:24;9.80;82.90
1347;DHT22;667;48.796;9.480;2023-11-18T09:15:57;9.90;82.90
1347;DHT22;667;48.796;9.480;2023-11-18T09:18:26;10.10;82.00
1347;DHT22;667;48.796;9.480;2023-11-18T09:20:53;10.60;82.90
1347;DHT22;667;48.796;9.480;2023-11-18T09:23:21;11.40;81.70
1347;DHT22;667;48.796;9.480;2023-11-18T09:25:48;12.10;79.90
1347;DHT22;667;48.796;9.480;2023-11-18T09:28:15;12.50;77.70
1347;DHT22;667;48.796;9.480;2023-11-18T09:30:46;13.00;76.30
1347;DHT22;667;48.796;9.480;2023-11-18T09:33:24;13.60;74.70
1347;DHT22;667;48.796;9.480;2023-11-18T09:36:06;15.70;68.40
1347;DHT22;667;48.796;9.480;2023-11-18T09:38:38;16.10;67.60
1347;DHT22;667;48.796;9.480;2023-11-18T09:41:12;17.50;63.70
1347;DHT22;667;48.796;9.480;2023-11-18T09:43:40;18.90;58.90
1347;DHT22;667;48.796;9.480;2023-11-18T09:46:17;20.10;55.70
1347;DHT22;667;48.796;9.480;2023-11-18T09:48:46;21.10;53.90
1347;DHT22;667;48.796;9.480;2023-11-18T09:51:24;21.70;51.70
1347;DHT22;667;48.796;9.480;2023-11-18T09:53:51;22.00;50.50
1347;DHT22;667;48.796;9.480;2023-11-18T09:59:05;21.70;49.00
1347;DHT22;667;48.796;9.480;2023-11-18T10:01:37;21.50;48.90
1347;DHT22;667;48.796;9.480;2023-11-18T10:04:05;21.10;49.20
1347;DHT22;667;48.796;9.480;2023-11-18T10:06:34;20.40;49.80
1347;DHT22;667;48.796;9.480;2023-11-18T10:09:02;19.50;50.10
1347;DHT22;667;48.796;9.480;2023-11-18T10:11:44;18.70;50.70
1347;DHT22;667;48.796;9.480;2023-11-18T10:14:16;17.80;52.10
1347;DHT22;667;48.796;9.480;2023-11-18T10:16:44;17.10;53.10
1347;DHT22;667;48.796;9.480;2023-11-18T10:19:13;16.70;54.60
1347;DHT22;667;48.796;9.480;2023-11-18T10:21:39;16.20;55.10
1347;DHT22;667;48.796;9.480;2023-11-18T10:24:06;15.70;56.10
1347;DHT22;667;48.796;9.480;2023-11-18T10:26:40;15.30;57.20
1347;DHT22;667;48.796;9.480;2023-11-18T10:29:06;15.00;58.00
1347;DHT22;667;48.796;9.480;2023-11-18T10:31:34;14.60;58.80
1347;DHT22;667;48.796;9.480;2023-11-18T10:34:03;14.30;59.50
1347;DHT22;667;48.796;9.480;2023-11-18T10:36:29;14.00;60.20
1347;DHT22;667;48.796;9.480;2023-11-18T10:38:58;13.70;61.10
1347;DHT22;667;48.796;9.480;2023-11-18T10:41:25;13.50;61.80
1347;DHT22;667;48.796;9.480;2023-11-18T10:44:11;13.30;62.40
1347;DHT22;667;48.796;9.480;2023-11-18T10:46:47;13.00;63.40
1347;DHT22;667;48.796;9.480;2023-11-18T10:49:16;12.90;65.00
1347;DHT22;667;48.796;9.480;2023-11-18T10:51:43;12.70;64.70
1347;DHT22;667;48.796;9.480;2023-11-18T10:54:13;12.60;65.00
1347;DHT22;667;48.796;9.480;2023-11-18T10:56:52;12.50;65.30
1347;DHT22;667;48.796;9.480;2023-11-18T10:59:22;12.40;65.50
1347;DHT22;667;48.796;9.480;2023-11-18T11:01:48;12.30;65.60
1347;DHT22;667;48.796;9.480;2023-11-18T11:04:15;12.30;66.00
1347;DHT22;667;48.796;9.480;2023-11-18T11:06:49;12.20;66.50
1347;DHT22;667;48.796;9.480;2023-11-18T11:09:22;12.10;66.60
1347;DHT22;667;48.796;9.480;2023-11-18T11:12:04;12.10;66.90
1347;DHT22;667;48.796;9.480;2023-11-18T11:14:46;12.10;67.10
1347;DHT22;667;48.796;9.480;2023-11-18T11:17:16;12.00;67.10
1347;DHT22;667;48.796;9.480;2023-11-18T11:19:55;12.00;67.30
1347;DHT22;667;48.796;9.480;2023-11-18T11:22:38;12.00;67.00
1347;DHT22;667;48.796;9.480;2023-11-18T11:25:24;12.00;67.00
1347;DHT22;667;48.796;9.480;2023-11-18T11:28:03;11.90;67.00
1347;DHT22;667;48.796;9.480;2023-11-18T11:30:46;11.90;67.50
1347;DHT22;667;48.796;9.480;2023-11-18T11:33:39;11.90;68.00
1347;DHT22;667;48.796;9.480;2023-11-18T11:36:12;11.90;68.40
1347;DHT22;667;48.796;9.480;2023-11-18T11:38:41;11.90;68.40
1347;DHT22;667;48.796;9.480;2023-11-18T11:41:13;11.80;68.20
1347;DHT22;667;48.796;9.480;2023-11-18T11:43:46;11.90;68.30
1347;DHT22;667;48.796;9.480;2023-11-18T11:46:13;11.80;68.10
1347;DHT22;667;48.796;9.480;2023-11-18T11:48:40;11.80;67.70
1347;DHT22;667;48.796;9.480;2023-11-18T11:54:04;11.80;67.40
1347;DHT22;667;48.796;9.480;2023-11-18T11:56:44;11.80;67.00
1347;DHT22;667;48.796;9.480;2023-11-18T11:59:15;11.80;67.00
1347;DHT22;667;48.796;9.480;2023-11-18T12:01:41;11.80;67.20
1347;DHT22;667;48.796;9.480;2023-11-18T12:04:12;11.80;67.00
1347;DHT22;667;48.796;9.480;2023-11-18T12:06:47;11.80;67.00
1347;DHT22;667;48.796;9.480;2023-11-18T12:09:14;11.80;67.00
1347;DHT22;667;48.796;9.480;2023-11-18T12:11:45;11.80;67.00
1347;DHT22;667;48.796;9.480;2023-11-18T12:14:14;11.80;67.30
1347;DHT22;667;48.796;9.480;2023-11-18T12:19:30;11.80;67.90
1347;DHT22;667;48.796;9.480;2023-11-18T12:30:49;11.80;68.20
1347;DHT22;667;48.796;9.480;2023-11-18T12:33:02;11.80;68.60
1347;DHT22;667;48.796;9.480;2023-11-18T12:41:05;11.80;69.00
1347;DHT22;667;48.796;9.480;2023-11-18T12:44:01;11.80;69.20
1347;DHT22;667;48.796;9.480;2023-11-18T12:46:49;11.70;69.00
1347;DHT22;667;48.796;9.480;2023-11-18T12:49:37;11.80;69.20
1347;DHT22;667;48.796;9.480;2023-11-18T12:52:07;11.80;69.10
1347;DHT22;667;48.796;9.480;2023-11-18T12:54:34;11.70;68.80
1347;DHT22;667;48.796;9.480;2023-11-18T12:57:04;11.80;68.60
1347;DHT22;667;48.796;9.480;2023-11-18T12:59:33;11.70;68.40
1347;DHT22;667;48.796;9.480;2023-11-18T13:01:59;11.70;68.30
1347;DHT22;667;48.796;9.480;2023-11-18T13:04:32;11.70;68.40
1347;DHT22;667;48.796;9.480;2023-11-18T13:06:59;11.70;68.60
1347;DHT22;667;48.796;9.480;2023-11-18T13:09:26;11.70;68.60
1347;DHT22;667;48.796;9.480;2023-11-18T13:11:59;11.70;68.90
1347;DHT22;667;48.796;9.480;2023-11-18T13:14:30;11.70;69.10
1347;DHT22;667;48.796;9.480;2023-11-18T13:16:58;11.70;69.40
1347;DHT22;667;48.796;9.480;2023-11-18T13:19:29;11.80;70.00
1347;DHT22;667;48.796;9.480;2023-11-18T13:21:58;11.70;70.30
1347;DHT22;667;48.796;9.480;2023-11-18T13:24:28;11.70;70.10
1347;DHT22;667;48.796;9.480;2023-11-18T13:26:55;11.70;69.90
1347;DHT22;667;48.796;9.480;2023-11-18T13:29:23;11.70;69.90
1347;DHT22;667;48.796;9.480;2023-11-18T13:31:50;11.70;70.00
1347;DHT22;667;48.796;9.480;2023-11-18T13:34:20;11.70;70.30
1347;DHT22;667;48.796;9.480;2023-11-18T13:36:47;11.70;70.50
1347;DHT22;667;48.796;9.480;2023-11-18T13:39:17;11.70;71.20
1347;DHT22;667;48.796;9.480;2023-11-18T13:41:43;11.70;71.30
1347;DHT22;667;48.796;9.480;2023-11-18T13:44:10;11.70;71.10
1347;DHT22;667;48.796;9.480;2023-11-18T13:46:41;11.60;70.80
1347;DHT22;667;48.796;9.480;2023-11-18T13:49:07;11.60;70.70
1347;DHT22;667;48.796;9.480;2023-11-18T13:51:33;11.60;70.90
1347;DHT22;667;48.796;9.480;2023-11-18T13:54:01;11.60;71.10
1347;DHT22;667;48.796;9.480;2023-11-18T13:56:28;11.60;71.20
1347;DHT22;667;48.796;9.480;2023-11-18T13:58:54;11.60;71.50
1347;DHT22;667;48.796;9.480;2023-11-18T14:01:20;11.60;72.10
1347;DHT22;667;48.796;9.480;2023-11-18T14:03:47;11.60;72.30
1347;DHT22;667;48.796;9.480;2023-11-18T14:06:13;11.60;72.50
1347;DHT22;667;48.796;9.480;2023-11-18T14:08:43;11.60;72.50
1347;DHT22;667;48.796;9.480;2023-11-18T14:11:10;11.50;72.40
1347;DHT22;667;48.796;9.480;2023-11-18T14:13:36;11.60;72.50
1347;DHT22;667;48.796;9.480;2023-11-18T14:16:03;11.50;73.10
1347;DHT22;667;48.796;9.480;2023-11-18T14:18:29;11.50;72.50
1347;DHT22;667;48.796;9.480;2023-11-18T14:20:56;11.50;72.50
1347;DHT22;667;48.796;9.480;2023-11-18T14:23:22;11.50;72.50
1347;DHT22;667;48.796;9.480;2023-11-18T14:25:48;11.50;72.30
1347;DHT22;667;48.796;9.480;2023-11-18T14:28:14;11.50;72.10
1347;DHT22;667;48.796;9.480;2023-11-18T14:30:40;11.40;71.80
1347;DHT22;667;48.796;9.480;2023-11-18T14:33:06;11.40;71.50
1347;DHT22;667;48.796;9.480;2023-11-18T14:35:35;11.40;70.90
1347;DHT22;667;48.796;9.480;2023-11-18T14:38:01;11.30;70.70
1347;DHT22;667;48.796;9.480;2023-11-18T14:40:26;11.30;70.70
1347;DHT22;667;48.796;9.480;2023-11-18T14:42:53;11.30;70.70
1347;DHT22;667;48.796;9.480;2023-11-18T14:45:19;11.30;71.00
1347;DHT22;667;48.796;9.480;2023-11-18T14:47:45;11.20;70.90
1347;DHT22;667;48.796;9.480;2023-11-18T14:50:13;11.20;71.70
1347;DHT22;667;48.796;9.480;2023-11-18T14:52:47;11.20;71.20
1347;DHT22;667;48.796;9.480;2023-11-18T14:55:14;11.20;71.40
1347;DHT22;667;48.796;9.480;2023-11-18T14:57:43;11.20;71.70
1347;DHT22;667;48.796;9.480;2023-11-18T15:00:10;11.20;71.80
1347;DHT22;667;48.796;9.480;2023-11-18T15:02:48;11.20;71.80
1347;DHT22;667;48.796;9.480;2023-11-18T15:05:17;11.20;71.80
1347;DHT22;667;48.796;9.480;2023-11-18T15:07:47;11.20;71.60
1347;DHT22;667;48.796;9.480;2023-11-18T15:10:21;11.20;71.50
1347;DHT22;667;48.796;9.480;2023-11-18T15:12:51;11.10;71.20
1347;DHT22;667;48.796;9.480;2023-11-18T15:15:24;11.10;71.20
1347;DHT22;667;48.796;9.480;2023-11-18T15:17:57;11.10;71.00
1347;DHT22;667;48.796;9.480;2023-11-18T15:20:24;11.10;71.00
1347;DHT22;667;48.796;9.480;2023-11-18T15:22:50;11.10;70.90
1347;DHT22;667;48.796;9.480;2023-11-18T15:25:16;11.10;70.90
1347;DHT22;667;48.796;9.480;2023-11-18T15:27:45;11.10;70.90
1347;DHT22;667;48.796;9.480;2023-11-18T15:30:15;11.10;71.00
1347;DHT22;667;48.796;9.480;2023-11-18T15:32:43;11.10;71.20
1347;DHT22;667;48.796;9.480;2023-11-18T15:35:09;11.00;71.00
1347;DHT22;667;48.796;9.480;2023-11-18T15:37:39;11.00;71.20
1347;DHT22;667;48.796;9.480;2023-11-18T15:40:07;11.00;71.40
1347;DHT22;667;48.796;9.480;2023-11-18T15:42:40;11.00;71.50
1347;DHT22;667;48.796;9.480;2023-11-18T15:45:13;11.00;71.80
1347;DHT22;667;48.796;9.480;2023-11-18T15:47:40;11.00;72.00
1347;DHT22;667;48.796;9.480;2023-11-18T15:50:08;11.00;72.30
1347;DHT22;667;48.796;9.480;2023-11-18T15:52:41;11.00;72.80
1347;DHT22;667;48.796;9.480;2023-11-18T15:55:07;11.00;73.00
1347;DHT22;667;48.796;9.480;2023-11-18T15:57:43;11.00;72.90
1347;DHT22;667;48.796;9.480;2023-11-18T16:00:10;11.00;72.80
1347;DHT22;667;48.796;9.480;2023-11-18T16:03:02;11.00;73.00
1347;DHT22;667;48.796;9.480;2023-11-18T16:05:30;11.00;73.10
1347;DHT22;667;48.796;9.480;2023-11-18T16:07:59;11.00;73.10
1347;DHT22;667;48.796;9.480;2023-11-18T16:10:25;11.00;73.10
1347;DHT22;667;48.796;9.480;2023-11-18T16:12:56;11.00;73.40
1347;DHT22;667;48.796;9.480;2023-11-18T16:15:27;11.00;73.40
1347;DHT22;667;48.796;9.480;2023-11-18T16:17:54;11.00;73.50
1347;DHT22;667;48.796;9.480;2023-11-18T16:20:21;11.00;73.70
1347;DHT22;667;48.796;9.480;2023-11-18T16:22:49;11.00;73.90
1347;DHT22;667;48.796;9.480;2023-11-18T16:25:15;11.00;74.20
1347;DHT22;667;48.796;9.480;2023-11-18T16:27:44;11.00;74.30
1347;DHT22;667;48.796;9.480;2023-11-18T16:30:10;10.90;74.30
1347;DHT22;667;48.796;9.480;2023-11-18T16:32:36;11.00;74.60
1347;DHT22;667;48.796;9.480;2023-11-18T16:35:02;10.90;74.70
1347;DHT22;667;48.796;9.480;2023-11-18T16:37:28;10.90;74.80
1347;DHT22;667;48.796;9.480;2023-11-18T16:39:54;10.90;74.90
1347;DHT22;667;48.796;9.480;2023-11-18T16:42:19;10.90;75.10
1347;DHT22;667;48.796;9.480;2023-11-18T16:44:48;10.90;75.40
1347;DHT22;667;48.796;9.480;2023-11-18T16:47:14;10.90;75.70
1347;DHT22;667;48.796;9.480;2023-11-18T16:49:41;10.90;76.00
1347;DHT22;667;48.796;9.480;2023-11-18T16:52:09;10.90;76.30
1347;DHT22;667;48.796;9.480;2023-11-18T16:54:34;10.90;76.40
1347;DHT22;667;48.796;9.480;2023-11-18T16:57:00;10.80;76.50
1347;DHT22;667;48.796;9.480;2023-11-18T16:59:25;10.80;76.60
1347;DHT22;667;48.796;9.480;2023-11-18T17:01:51;10.80;76.80